createdAt,value
2022-12-25T00:00:58.241Z,30.50
2022-12-25T00:03:30.045Z,31.40
2022-12-25T00:06:03.154Z,31.50
2022-12-25T00:08:35.201Z,37.40
2022-12-25T00:11:09.801Z,44.10
2022-12-25T00:13:41.477Z,41.80
2022-12-25T00:16:16.547Z,39.70
2022-12-25T00:18:49.120Z,33.00
2022-12-25T00:21:21.414Z,32.60
2022-12-25T00:23:57.007Z,31.50
2022-12-25T00:26:29.861Z,30.00
2022-12-25T00:29:07.793Z,32.10
2022-12-25T00:31:42.508Z,30.20
2022-12-25T00:36:44.957Z,29.10
2022-12-25T00:39:16.972Z,28.90
2022-12-25T00:42:06.200Z,34.40
2022-12-25T00:44:42.577Z,37.70
2022-12-25T00:47:14.125Z,44.80
2022-12-25T00:49:46.995Z,35.50
2022-12-25T00:52:18.883Z,39.30
2022-12-25T00:54:50.287Z,42.70
2022-12-25T00:57:21.837Z,38.20
2022-12-25T00:59:53.474Z,40.50
2022-12-25T01:02:25.728Z,45.80
2022-12-25T01:04:58.577Z,48.20
2022-12-25T01:07:30.817Z,43.90
2022-12-25T01:10:19.920Z,49.70
2022-12-25T01:12:52.306Z,45.40
2022-12-25T01:15:24.311Z,47.50
2022-12-25T01:17:55.942Z,48.60
2022-12-25T01:20:27.812Z,55.40
2022-12-25T01:22:59.301Z,50.80
2022-12-25T01:25:30.991Z,50.60
2022-12-25T01:28:02.623Z,56.40
2022-12-25T01:30:34.723Z,49.80
2022-12-25T01:33:06.416Z,47.30
2022-12-25T01:35:40.507Z,50.50
2022-12-25T01:38:12.169Z,51.50
2022-12-25T01:40:43.668Z,46.60
2022-12-25T01:43:24.718Z,49.10
2022-12-25T01:45:56.799Z,46.90
2022-12-25T01:48:32.102Z,47.20
2022-12-25T01:51:07.719Z,54.50
2022-12-25T01:53:40.874Z,49.50
2022-12-25T01:56:13.383Z,49.60
2022-12-25T01:58:45.007Z,50.40
2022-12-25T02:01:16.667Z,50.80
2022-12-25T02:03:48.302Z,45.70
2022-12-25T02:06:19.896Z,46.10
2022-12-25T02:08:52.463Z,48.40
2022-12-25T02:11:37.688Z,45.70
2022-12-25T02:14:09.579Z,47.70
2022-12-25T02:16:57.005Z,47.10
2022-12-25T02:19:53.053Z,47.40
2022-12-25T02:22:41.052Z,46.60
2022-12-25T02:25:32.022Z,47.40
2022-12-25T02:28:17.776Z,44.60
2022-12-25T02:30:54.573Z,48.00
2022-12-25T02:33:49.368Z,48.70
2022-12-25T02:36:26.462Z,45.70
2022-12-25T02:39:19.045Z,47.00
2022-12-25T02:41:55.363Z,48.70
2022-12-25T02:44:47.032Z,48.40
2022-12-25T02:47:36.546Z,49.00
2022-12-25T02:50:27.710Z,53.90
2022-12-25T02:53:18.212Z,48.90
2022-12-25T02:56:08.907Z,50.20
2022-12-25T02:59:01.876Z,50.30
2022-12-25T03:01:53.965Z,50.80
2022-12-25T03:04:47.668Z,56.70
2022-12-25T03:07:23.120Z,59.50
2022-12-25T03:10:16.606Z,72.90
2022-12-25T03:12:55.385Z,76.30
2022-12-25T03:15:44.672Z,78.60
2022-12-25T03:18:20.403Z,66.50
2022-12-25T03:21:09.112Z,60.80
2022-12-25T03:24:00.154Z,58.80
2022-12-25T03:26:48.997Z,55.20
2022-12-25T03:29:34.061Z,57.70
2022-12-25T03:32:14.611Z,45.10
2022-12-25T03:35:12.329Z,46.90
2022-12-25T03:38:12.111Z,42.50
2022-12-25T03:41:14.886Z,40.00
2022-12-25T03:44:11.105Z,41.30
2022-12-25T03:47:07.573Z,41.90
2022-12-25T03:50:05.202Z,35.40
2022-12-25T03:52:57.202Z,35.60
2022-12-25T03:55:55.285Z,31.80
2022-12-25T03:58:46.304Z,30.60
2022-12-25T04:01:35.415Z,30.40
2022-12-25T04:04:24.437Z,29.60
2022-12-25T04:07:13.363Z,26.80
2022-12-25T04:10:02.363Z,23.20
2022-12-25T04:12:51.037Z,28.60
2022-12-25T04:15:40.353Z,26.80
2022-12-25T04:18:29.232Z,29.60
2022-12-25T04:21:18.106Z,28.50
2022-12-25T04:24:06.724Z,27.20
2022-12-25T04:26:55.717Z,28.40
2022-12-25T04:29:44.595Z,26.40
2022-12-25T04:32:34.554Z,26.10
2022-12-25T04:35:24.476Z,27.30
2022-12-25T04:37:56.224Z,31.90
2022-12-25T04:40:27.887Z,28.30
2022-12-25T04:42:59.513Z,32.70
2022-12-25T04:45:30.951Z,30.20
2022-12-25T04:48:04.062Z,29.00
2022-12-25T04:50:35.543Z,26.50
2022-12-25T04:53:06.965Z,27.20
2022-12-25T04:55:38.443Z,31.20
2022-12-25T04:58:10.694Z,28.20
2022-12-25T05:00:42.575Z,27.80
2022-12-25T05:03:14.279Z,32.00
2022-12-25T05:05:45.799Z,31.70
2022-12-25T05:08:17.309Z,34.60
2022-12-25T05:10:48.811Z,31.90
2022-12-25T05:13:20.561Z,32.40
2022-12-25T05:15:52.328Z,32.80
2022-12-25T05:18:24.353Z,34.30
2022-12-25T05:20:56.417Z,32.00
2022-12-25T05:23:28.567Z,33.80
2022-12-25T05:26:00.424Z,32.50
2022-12-25T05:28:32.016Z,36.00
2022-12-25T05:31:03.964Z,32.40
2022-12-25T05:33:35.567Z,32.80
2022-12-25T05:36:09.167Z,34.40
2022-12-25T05:38:41.003Z,34.20
2022-12-25T05:41:12.506Z,35.20
2022-12-25T05:43:44.346Z,34.80
2022-12-25T05:46:16.613Z,38.70
2022-12-25T05:48:48.374Z,37.60
2022-12-25T05:51:19.863Z,35.40
2022-12-25T05:53:51.534Z,38.90
2022-12-25T05:56:23.065Z,40.50
2022-12-25T05:58:54.493Z,44.70
2022-12-25T06:01:29.088Z,41.30
2022-12-25T06:06:31.413Z,37.90
2022-12-25T06:09:02.907Z,37.60
2022-12-25T06:11:34.398Z,40.30
2022-12-25T06:14:06.081Z,40.30
2022-12-25T06:16:38.475Z,42.40
2022-12-25T06:19:10.839Z,38.70
2022-12-25T06:21:42.380Z,38.50
2022-12-25T06:24:20.831Z,41.50
2022-12-25T06:26:53.476Z,42.90
2022-12-25T06:29:25.017Z,44.70
2022-12-25T06:31:57.642Z,45.40
2022-12-25T06:34:29.626Z,39.90
2022-12-25T06:37:01.381Z,39.30
2022-12-25T06:39:33.429Z,38.00
2022-12-25T06:42:05.060Z,39.20
2022-12-25T06:44:36.581Z,43.00
2022-12-25T06:47:08.109Z,42.90
2022-12-25T06:49:39.802Z,41.10
2022-12-25T06:52:11.374Z,44.00
2022-12-25T06:54:42.858Z,38.90
2022-12-25T06:57:14.404Z,36.50
2022-12-25T06:59:49.896Z,41.60
2022-12-25T07:02:27.822Z,39.30
2022-12-25T07:04:59.654Z,39.40
2022-12-25T07:07:31.202Z,40.70
2022-12-25T07:10:02.759Z,42.60
2022-12-25T07:12:34.317Z,41.30
2022-12-25T07:15:06.589Z,40.50
2022-12-25T07:17:38.118Z,37.90
2022-12-25T07:20:11.744Z,38.30
2022-12-25T07:22:43.180Z,37.10
2022-12-25T07:25:14.789Z,39.20
2022-12-25T07:27:46.437Z,40.40
2022-12-25T07:30:18.509Z,43.50
2022-12-25T07:32:51.911Z,44.30
2022-12-25T07:35:23.988Z,53.40
2022-12-25T07:37:55.465Z,52.50
2022-12-25T07:40:27.163Z,59.10
2022-12-25T07:42:58.890Z,48.40
2022-12-25T07:45:30.543Z,58.00
2022-12-25T07:48:05.520Z,49.60
2022-12-25T07:50:38.730Z,53.50
2022-12-25T07:53:11.640Z,47.60
2022-12-25T07:55:43.164Z,47.90
2022-12-25T07:58:18.561Z,44.90
2022-12-25T08:00:54.559Z,43.70
2022-12-25T08:03:26.638Z,45.70
2022-12-25T08:06:00.167Z,42.20
2022-12-25T08:08:31.992Z,44.10
2022-12-25T08:11:04.242Z,41.40
2022-12-25T08:13:36.304Z,53.10
2022-12-25T08:16:10.330Z,50.90
2022-12-25T08:18:43.341Z,49.40
2022-12-25T08:21:16.922Z,48.50
2022-12-25T08:23:49.961Z,42.90
2022-12-25T08:26:24.053Z,45.30
2022-12-25T08:28:55.773Z,41.20
2022-12-25T08:31:29.890Z,44.50
2022-12-25T08:34:03.336Z,49.20
2022-12-25T08:36:35.190Z,49.20
2022-12-25T08:39:07.028Z,47.00
2022-12-25T08:41:39.287Z,51.50
2022-12-25T08:44:13.487Z,49.60
2022-12-25T08:46:45.166Z,59.10
2022-12-25T08:49:16.836Z,48.60
2022-12-25T08:51:49.025Z,47.10
2022-12-25T08:54:20.546Z,48.20
2022-12-25T08:56:55.077Z,51.90
2022-12-25T08:59:28.912Z,47.90
2022-12-25T09:02:00.648Z,48.90
2022-12-25T09:04:32.981Z,43.30
2022-12-25T09:07:04.726Z,45.60
2022-12-25T09:09:36.233Z,43.40
2022-12-25T09:12:08.129Z,54.60
2022-12-25T09:14:39.801Z,50.80
2022-12-25T09:17:12.984Z,40.50
2022-12-25T09:19:45.469Z,42.30
2022-12-25T09:22:18.358Z,40.80
2022-12-25T09:24:51.677Z,42.00
2022-12-25T09:27:23.374Z,36.00
2022-12-25T09:29:54.991Z,38.30
2022-12-25T09:32:26.630Z,34.80
2022-12-25T09:34:58.137Z,37.10
2022-12-25T09:37:30.127Z,31.60
2022-12-25T09:40:01.840Z,34.10
2022-12-25T09:42:35.596Z,29.00
2022-12-25T09:45:14.429Z,31.30
2022-12-25T09:47:49.844Z,30.90
2022-12-25T09:50:28.620Z,27.00
2022-12-25T09:53:07.457Z,26.30
2022-12-25T09:55:45.233Z,28.90
2022-12-25T09:58:17.843Z,32.50
2022-12-25T10:01:30.180Z,30.00
2022-12-25T10:04:31.892Z,32.20
2022-12-25T10:07:15.746Z,31.40
2022-12-25T10:10:18.261Z,26.10
2022-12-25T10:13:03.435Z,29.20
2022-12-25T10:18:41.903Z,23.20
2022-12-25T10:21:18.527Z,28.80
2022-12-25T10:23:53.701Z,26.70
2022-12-25T10:26:27.224Z,28.90
2022-12-25T10:29:03.449Z,27.40
2022-12-25T10:31:38.851Z,26.60
2022-12-25T10:34:13.990Z,24.50
2022-12-25T10:36:47.655Z,26.60
2022-12-25T10:39:22.232Z,29.80
2022-12-25T10:42:28.179Z,29.60
2022-12-25T10:45:01.381Z,28.90
2022-12-25T10:47:37.672Z,24.30
2022-12-25T10:50:19.681Z,28.40
2022-12-25T10:52:56.786Z,26.00
2022-12-25T10:55:29.675Z,24.50
2022-12-25T10:58:02.279Z,26.70
2022-12-25T11:00:35.516Z,24.50
2022-12-25T11:03:07.451Z,25.50
2022-12-25T11:05:39.561Z,29.10
2022-12-25T11:08:23.322Z,24.80
2022-12-25T11:11:06.656Z,26.20
2022-12-25T11:13:42.462Z,26.50
2022-12-25T11:16:26.746Z,22.40
2022-12-25T11:18:59.622Z,26.20
2022-12-25T11:21:32.992Z,30.60
2022-12-25T11:24:06.604Z,23.90
2022-12-25T11:26:50.429Z,21.30
2022-12-25T11:29:30.730Z,26.40
2022-12-25T11:32:04.233Z,25.40
2022-12-25T11:34:38.820Z,24.70
2022-12-25T11:37:17.355Z,32.60
2022-12-25T11:39:49.544Z,29.80
2022-12-25T11:42:26.816Z,23.30
2022-12-25T11:45:03.991Z,24.60
2022-12-25T11:47:40.031Z,25.40
2022-12-25T11:50:23.915Z,19.40
2022-12-25T11:52:56.794Z,20.90
2022-12-25T11:55:35.822Z,21.00
2022-12-25T11:58:15.035Z,25.70
2022-12-25T12:00:51.421Z,21.50
2022-12-25T12:03:28.859Z,20.10
2022-12-25T12:06:03.962Z,23.00
2022-12-25T12:08:37.063Z,20.30
2022-12-25T12:11:18.645Z,19.60
2022-12-25T12:14:07.634Z,18.70
2022-12-25T12:16:39.699Z,16.90
2022-12-25T12:19:29.130Z,17.40
2022-12-25T12:22:03.028Z,15.00
2022-12-25T12:24:39.935Z,18.30
2022-12-25T12:27:24.060Z,19.50
2022-12-25T12:29:58.429Z,17.80
2022-12-25T12:32:46.405Z,20.20
2022-12-25T12:35:21.643Z,20.00
2022-12-25T12:37:56.504Z,15.30
2022-12-25T12:40:37.091Z,17.20
2022-12-25T12:43:25.974Z,16.80
2022-12-25T12:46:03.640Z,29.60
2022-12-25T12:48:42.359Z,32.70
2022-12-25T12:51:15.805Z,21.70
2022-12-25T12:53:47.396Z,16.30
2022-12-25T12:56:21.825Z,19.00
2022-12-25T12:58:53.672Z,18.40
2022-12-25T13:01:44.363Z,17.60
2022-12-25T13:04:47.669Z,16.00
2022-12-25T13:07:33.687Z,18.70
2022-12-25T13:10:23.170Z,14.70
2022-12-25T13:12:59.716Z,19.20
2022-12-25T13:15:34.458Z,19.10
2022-12-25T13:20:47.550Z,20.30
2022-12-25T13:23:28.308Z,17.00
2022-12-25T13:26:01.386Z,19.40
2022-12-25T13:28:34.935Z,19.20
2022-12-25T13:31:15.208Z,17.00
2022-12-25T13:33:50.530Z,16.60
2022-12-25T13:36:22.352Z,18.30
2022-12-25T13:38:56.758Z,17.30
2022-12-25T13:41:53.671Z,19.00
2022-12-25T13:44:29.033Z,13.50
2022-12-25T13:47:16.575Z,12.60
2022-12-25T13:49:49.058Z,12.20
2022-12-25T13:52:21.851Z,13.10
2022-12-25T13:55:00.574Z,9.30
2022-12-25T13:57:36.087Z,12.10
2022-12-25T14:00:18.365Z,12.50
2022-12-25T14:02:50.734Z,11.00
2022-12-25T14:05:42.863Z,14.60
2022-12-25T14:08:20.849Z,19.60
2022-12-25T14:10:54.590Z,17.40
2022-12-25T14:13:30.219Z,21.20
2022-12-25T14:16:02.550Z,20.30
2022-12-25T14:18:35.654Z,18.10
2022-12-25T14:21:12.566Z,17.40
2022-12-25T14:23:46.880Z,17.70
2022-12-25T14:26:24.115Z,23.50
2022-12-25T14:28:59.395Z,22.60
2022-12-25T14:31:33.081Z,20.20
2022-12-25T14:34:06.852Z,19.40
2022-12-25T14:36:39.066Z,18.40
2022-12-25T14:39:29.555Z,21.70
2022-12-25T14:42:02.128Z,20.10
2022-12-25T14:44:39.045Z,22.10
2022-12-25T14:47:18.034Z,34.90
2022-12-25T14:49:49.956Z,38.00
2022-12-25T14:52:24.697Z,38.70
2022-12-25T14:57:31.352Z,33.20
2022-12-25T15:00:07.880Z,32.60
2022-12-25T15:02:46.013Z,30.10
2022-12-25T15:05:41.012Z,33.20
2022-12-25T15:08:27.340Z,40.00
2022-12-25T15:11:02.308Z,46.50
2022-12-25T15:13:34.645Z,48.70
2022-12-25T15:16:14.642Z,44.60
2022-12-25T15:18:48.481Z,49.70
2022-12-25T15:21:24.749Z,39.30
2022-12-25T15:23:58.419Z,32.20
2022-12-25T15:26:32.157Z,27.30
2022-12-25T15:29:03.744Z,27.80
2022-12-25T15:31:37.902Z,27.60
2022-12-25T15:34:22.235Z,26.40
2022-12-25T15:36:53.864Z,28.50
2022-12-25T15:39:25.359Z,32.90
2022-12-25T15:42:14.992Z,36.80
2022-12-25T15:44:47.324Z,37.90
2022-12-25T15:47:20.383Z,34.70
2022-12-25T15:49:52.350Z,34.50
2022-12-25T15:52:23.990Z,34.50
2022-12-25T15:54:55.665Z,39.80
2022-12-25T15:57:27.221Z,37.50
2022-12-25T15:59:58.880Z,34.90
2022-12-25T16:02:30.577Z,36.50
2022-12-25T16:05:09.961Z,35.30
2022-12-25T16:07:42.125Z,44.70
2022-12-25T16:10:18.210Z,42.20
2022-12-25T16:12:49.783Z,44.20
2022-12-25T16:15:21.420Z,36.00
2022-12-25T16:17:52.912Z,32.70
2022-12-25T16:20:24.464Z,37.30
2022-12-25T16:22:55.866Z,35.40
2022-12-25T16:25:27.634Z,33.20
2022-12-25T16:27:59.166Z,34.30
2022-12-25T16:30:31.096Z,31.80
2022-12-25T16:33:02.741Z,30.00
2022-12-25T16:35:34.852Z,28.70
2022-12-25T16:38:06.876Z,32.30
2022-12-25T16:40:38.576Z,31.50
2022-12-25T16:43:10.373Z,32.50
2022-12-25T16:45:42.881Z,34.90
2022-12-25T16:48:14.915Z,34.50
2022-12-25T16:50:46.601Z,32.50
2022-12-25T16:53:18.573Z,31.70
2022-12-25T16:55:51.899Z,36.80
2022-12-25T16:58:23.578Z,34.60
2022-12-25T17:00:55.451Z,31.70
2022-12-25T17:03:27.343Z,37.00
2022-12-25T17:05:58.822Z,41.00
2022-12-25T17:08:30.581Z,32.40
2022-12-25T17:11:05.661Z,36.00
2022-12-25T17:13:37.519Z,35.20
2022-12-25T17:16:18.211Z,35.30
2022-12-25T17:18:54.268Z,37.10
2022-12-25T17:21:26.696Z,44.70
2022-12-25T17:24:03.088Z,43.00
2022-12-25T17:26:35.803Z,36.50
2022-12-25T17:29:07.458Z,38.90
2022-12-25T17:31:39.942Z,39.60
2022-12-25T17:34:12.647Z,34.50
2022-12-25T17:36:45.109Z,41.30
2022-12-25T17:39:16.812Z,42.60
2022-12-25T17:41:50.274Z,41.00
2022-12-25T17:44:22.845Z,44.10
2022-12-25T17:46:54.750Z,54.70
2022-12-25T17:49:26.409Z,48.00
2022-12-25T17:51:58.768Z,43.90
2022-12-25T17:54:30.290Z,45.70
2022-12-25T17:57:01.938Z,45.40
2022-12-25T17:59:33.679Z,47.00
2022-12-25T18:02:05.492Z,67.50
2022-12-25T18:04:37.121Z,68.50
2022-12-25T18:07:08.715Z,69.00
2022-12-25T18:09:40.661Z,65.80
2022-12-25T18:12:12.486Z,62.10
2022-12-25T18:14:44.258Z,61.10
2022-12-25T18:17:15.872Z,57.00
2022-12-25T18:19:47.538Z,53.40
2022-12-25T18:22:19.654Z,52.50
2022-12-25T18:24:51.480Z,51.70
2022-12-25T18:27:23.140Z,52.80
2022-12-25T18:29:54.709Z,52.60
2022-12-25T18:32:28.156Z,50.60
2022-12-25T18:35:00.117Z,51.40
2022-12-25T18:37:35.906Z,47.80
2022-12-25T18:40:12.631Z,45.60
2022-12-25T18:42:46.823Z,43.20
2022-12-25T18:45:20.138Z,47.40
2022-12-25T18:47:52.040Z,42.60
2022-12-25T18:50:38.675Z,44.00
2022-12-25T18:53:10.959Z,45.50
2022-12-25T18:55:45.221Z,39.00
2022-12-25T18:58:17.128Z,47.10
2022-12-25T19:00:48.898Z,47.80
2022-12-25T19:03:20.557Z,42.90
2022-12-25T19:05:52.241Z,46.40
2022-12-25T19:08:24.049Z,45.00
2022-12-25T19:10:56.000Z,43.50
2022-12-25T19:13:27.872Z,43.50
2022-12-25T19:16:02.868Z,40.40
2022-12-25T19:18:37.380Z,38.80
2022-12-25T19:21:11.320Z,38.00
2022-12-25T19:23:43.269Z,42.80
2022-12-25T19:26:15.190Z,40.80
2022-12-25T19:28:46.827Z,41.60
2022-12-25T19:31:19.448Z,45.00
2022-12-25T19:33:51.990Z,40.30
2022-12-25T19:36:24.337Z,43.40
2022-12-25T19:38:56.935Z,43.40
2022-12-25T19:41:29.383Z,40.30
2022-12-25T19:44:01.483Z,40.40
2022-12-25T19:46:35.670Z,42.00
2022-12-25T19:49:08.398Z,38.70
2022-12-25T19:51:43.337Z,38.80
2022-12-25T19:54:17.550Z,34.70
2022-12-25T19:56:50.336Z,49.90
2022-12-25T19:59:22.397Z,43.30
2022-12-25T20:01:54.943Z,42.00
2022-12-25T20:04:26.626Z,52.90
2022-12-25T20:06:59.103Z,43.60
2022-12-25T20:09:33.085Z,41.50
2022-12-25T20:12:05.377Z,43.00
2022-12-25T20:14:37.457Z,57.90
2022-12-25T20:17:15.568Z,51.30
2022-12-25T20:19:47.687Z,45.30
2022-12-25T20:22:19.371Z,44.90
2022-12-25T20:24:50.975Z,46.30
2022-12-25T20:27:23.406Z,40.70
2022-12-25T20:29:56.066Z,39.10
2022-12-25T20:32:28.993Z,34.70
2022-12-25T20:35:02.355Z,33.90
2022-12-25T20:37:34.155Z,33.40
2022-12-25T20:40:08.179Z,31.80
2022-12-25T20:42:40.521Z,28.10
2022-12-25T20:45:13.498Z,33.90
2022-12-25T20:47:45.933Z,28.90
2022-12-25T20:50:18.357Z,27.30
2022-12-25T20:52:50.031Z,28.10
2022-12-25T20:55:22.163Z,26.00
2022-12-25T20:57:54.200Z,29.20
2022-12-25T21:00:26.717Z,30.50
2022-12-25T21:02:58.993Z,24.30
2022-12-25T21:05:31.771Z,29.80
2022-12-25T21:08:03.552Z,22.70
2022-12-25T21:10:36.732Z,24.80
2022-12-25T21:13:08.747Z,25.40
2022-12-25T21:15:44.102Z,22.60
2022-12-25T21:18:16.711Z,27.80
2022-12-25T21:20:51.665Z,23.60
2022-12-25T21:23:24.215Z,26.00
2022-12-25T21:25:56.272Z,25.60
2022-12-25T21:28:30.451Z,27.70
2022-12-25T21:31:07.072Z,27.40
2022-12-25T21:33:55.371Z,27.40
2022-12-25T21:36:29.324Z,27.60
2022-12-25T21:39:04.382Z,27.50
2022-12-25T21:41:40.587Z,30.30
2022-12-25T21:44:14.466Z,30.40
2022-12-25T21:46:46.560Z,27.30
2022-12-25T21:49:39.255Z,31.40
2022-12-25T21:52:11.199Z,28.30
2022-12-25T21:54:43.117Z,27.80
2022-12-25T21:57:14.570Z,28.70
2022-12-25T21:59:46.526Z,30.70
2022-12-25T22:02:19.103Z,31.10
2022-12-25T22:04:51.290Z,30.20
2022-12-25T22:07:23.110Z,28.30
2022-12-25T22:09:55.023Z,31.50
2022-12-25T22:12:43.942Z,30.20
2022-12-25T22:15:15.652Z,34.30
2022-12-25T22:18:04.447Z,32.90
2022-12-25T22:20:39.585Z,30.90
2022-12-25T22:23:11.171Z,34.30
2022-12-25T22:25:43.115Z,31.10
2022-12-25T22:28:15.330Z,30.70
2022-12-25T22:30:46.816Z,30.60
2022-12-25T22:33:20.771Z,29.90
2022-12-25T22:35:52.599Z,28.90
2022-12-25T22:38:24.179Z,29.00
2022-12-25T22:40:55.690Z,25.30
2022-12-25T22:43:50.633Z,25.80
2022-12-25T22:46:19.082Z,27.60
2022-12-25T22:48:51.619Z,28.70
2022-12-25T22:51:23.392Z,25.70
2022-12-25T22:53:58.803Z,30.60
2022-12-25T22:56:34.965Z,22.70
2022-12-25T22:59:06.730Z,28.90
2022-12-25T23:01:38.960Z,25.80
2022-12-25T23:04:10.771Z,29.40
2022-12-25T23:06:43.147Z,35.70
2022-12-25T23:09:24.180Z,25.80
2022-12-25T23:11:56.953Z,28.90
2022-12-25T23:14:41.222Z,25.80
2022-12-25T23:17:28.755Z,28.00
2022-12-25T23:20:18.934Z,29.30
2022-12-25T23:23:07.749Z,26.00
2022-12-25T23:25:56.714Z,26.80
2022-12-25T23:28:50.920Z,26.10
2022-12-25T23:31:25.437Z,24.10
2022-12-25T23:33:57.036Z,34.40
2022-12-25T23:36:29.201Z,27.10
2022-12-25T23:39:08.567Z,24.00
2022-12-25T23:41:42.128Z,26.90
2022-12-25T23:44:15.439Z,30.00
2022-12-25T23:46:53.137Z,25.00
2022-12-25T23:49:25.880Z,23.40
2022-12-25T23:51:57.939Z,26.40
2022-12-25T23:54:31.531Z,25.80
2022-12-25T23:57:03.257Z,25.70
2022-12-25T23:59:35.024Z,26.20
